sensor_id;sensor_type;location;lat;lon;timestamp;pressure;altitude;pressure_sealevel;temperature;humidity
56831;BME280;42713;42.676;23.352;2023-02-13T00:01:57;96498.16;;;-0.03;78.08
56831;BME280;42713;42.676;23.352;2023-02-13T00:04:22;96499.09;;;-0.04;78.12
56831;BME280;42713;42.676;23.352;2023-02-13T00:06:47;96499.78;;;-0.02;78.35
56831;BME280;42713;42.676;23.352;2023-02-13T00:09:14;96504.16;;;-0.02;77.84
56831;BME280;42713;42.676;23.352;2023-02-13T00:11:40;96504.41;;;-0.05;78.20
56831;BME280;42713;42.676;23.352;2023-02-13T00:14:05;96493.53;;;-0.09;78.27
56831;BME280;42713;42.676;23.352;2023-02-13T00:16:32;96501.97;;;-0.07;77.97
56831;BME280;42713;42.676;23.352;2023-02-13T00:18:57;96498.44;;;-0.06;78.10
56831;BME280;42713;42.676;23.352;2023-02-13T00:21:24;96517.72;;;0.00;78.11
56831;BME280;42713;42.676;23.352;2023-02-13T00:23:50;96516.09;;;-0.01;77.84
56831;BME280;42713;42.676;23.352;2023-02-13T00:26:16;96509.41;;;-0.04;78.11
56831;BME280;42713;42.676;23.352;2023-02-13T00:28:42;96516.47;;;-0.06;78.22
56831;BME280;42713;42.676;23.352;2023-02-13T00:31:10;96512.25;;;-0.07;78.35
56831;BME280;42713;42.676;23.352;2023-02-13T00:33:37;96510.34;;;-0.05;78.26
56831;BME280;42713;42.676;23.352;2023-02-13T00:36:08;96519.31;;;0.01;78.01
56831;BME280;42713;42.676;23.352;2023-02-13T00:38:35;96526.50;;;-0.03;78.09
56831;BME280;42713;42.676;23.352;2023-02-13T00:41:01;96510.94;;;-0.01;77.92
56831;BME280;42713;42.676;23.352;2023-02-13T00:43:27;96509.69;;;0.03;77.71
56831;BME280;42713;42.676;23.352;2023-02-13T00:45:52;96525.44;;;0.00;78.26
56831;BME280;42713;42.676;23.352;2023-02-13T00:48:18;96527.19;;;-0.01;78.43
56831;BME280;42713;42.676;23.352;2023-02-13T00:50:45;96521.91;;;0.01;78.25
56831;BME280;42713;42.676;23.352;2023-02-13T00:53:11;96519.75;;;0.06;78.04
56831;BME280;42713;42.676;23.352;2023-02-13T00:55:36;96524.75;;;0.08;78.35
56831;BME280;42713;42.676;23.352;2023-02-13T00:58:02;96525.59;;;0.08;77.97
56831;BME280;42713;42.676;23.352;2023-02-13T01:00:27;96527.75;;;0.03;77.94
56831;BME280;42713;42.676;23.352;2023-02-13T01:02:52;96533.16;;;0.00;78.35
56831;BME280;42713;42.676;23.352;2023-02-13T01:05:18;96530.31;;;0.03;78.45
56831;BME280;42713;42.676;23.352;2023-02-13T01:07:44;96531.41;;;0.01;78.12
56831;BME280;42713;42.676;23.352;2023-02-13T01:10:09;96538.88;;;0.04;78.09
56831;BME280;42713;42.676;23.352;2023-02-13T01:12:35;96526.25;;;0.01;78.24
56831;BME280;42713;42.676;23.352;2023-02-13T01:15:01;96520.41;;;-0.02;78.37
56831;BME280;42713;42.676;23.352;2023-02-13T01:17:27;96526.66;;;0.06;78.32
56831;BME280;42713;42.676;23.352;2023-02-13T01:19:53;96526.50;;;-0.03;78.88
56831;BME280;42713;42.676;23.352;2023-02-13T01:22:18;96526.63;;;-0.04;78.92
56831;BME280;42713;42.676;23.352;2023-02-13T01:24:44;96529.59;;;-0.09;79.10
56831;BME280;42713;42.676;23.352;2023-02-13T01:27:09;96534.50;;;-0.06;78.68
56831;BME280;42713;42.676;23.352;2023-02-13T01:29:35;96528.13;;;-0.02;79.09
56831;BME280;42713;42.676;23.352;2023-02-13T01:32:00;96538.31;;;0.00;78.94
56831;BME280;42713;42.676;23.352;2023-02-13T01:34:28;96531.25;;;0.02;78.48
56831;BME280;42713;42.676;23.352;2023-02-13T01:36:54;96534.22;;;-0.03;78.69
56831;BME280;42713;42.676;23.352;2023-02-13T01:39:19;96538.31;;;0.00;78.73
56831;BME280;42713;42.676;23.352;2023-02-13T01:41:45;96545.66;;;0.05;78.92
56831;BME280;42713;42.676;23.352;2023-02-13T01:47:37;96543.34;;;0.11;78.38
56831;BME280;42713;42.676;23.352;2023-02-13T01:50:17;96537.78;;;0.06;78.46
56831;BME280;42713;42.676;23.352;2023-02-13T01:52:53;96543.25;;;0.13;78.50
56831;BME280;42713;42.676;23.352;2023-02-13T01:55:20;96548.94;;;0.17;77.97
56831;BME280;42713;42.676;23.352;2023-02-13T01:57:52;96542.84;;;0.18;77.79
56831;BME280;42713;42.676;23.352;2023-02-13T02:00:19;96552.88;;;0.21;77.90
56831;BME280;42713;42.676;23.352;2023-02-13T02:02:54;96539.72;;;0.14;77.67
56831;BME280;42713;42.676;23.352;2023-02-13T02:05:25;96544.88;;;0.14;77.47
56831;BME280;42713;42.676;23.352;2023-02-13T02:07:52;96549.34;;;0.12;77.97
56831;BME280;42713;42.676;23.352;2023-02-13T02:10:19;96544.03;;;0.13;78.07
56831;BME280;42713;42.676;23.352;2023-02-13T02:13:04;96545.38;;;0.08;78.01
56831;BME280;42713;42.676;23.352;2023-02-13T02:15:31;96541.06;;;0.08;78.06
56831;BME280;42713;42.676;23.352;2023-02-13T02:17:57;96543.19;;;0.03;78.35
56831;BME280;42713;42.676;23.352;2023-02-13T02:46:05;96552.53;;;-0.06;78.66
56831;BME280;42713;42.676;23.352;2023-02-13T02:48:31;96563.34;;;-0.12;78.96
56831;BME280;42713;42.676;23.352;2023-02-13T02:54:36;96567.81;;;-0.14;78.64
56831;BME280;42713;42.676;23.352;2023-02-13T02:57:27;96564.56;;;-0.16;78.89
56831;BME280;42713;42.676;23.352;2023-02-13T03:00:16;96570.75;;;-0.19;78.89
56831;BME280;42713;42.676;23.352;2023-02-13T03:03:04;96580.13;;;-0.18;79.08
56831;BME280;42713;42.676;23.352;2023-02-13T03:05:54;96573.09;;;-0.16;79.14
56831;BME280;42713;42.676;23.352;2023-02-13T03:08:36;96565.91;;;-0.12;78.69
56831;BME280;42713;42.676;23.352;2023-02-13T03:11:20;96562.69;;;-0.04;78.46
56831;BME280;42713;42.676;23.352;2023-02-13T03:14:05;96554.59;;;0.01;78.37
56831;BME280;42713;42.676;23.352;2023-02-13T03:16:32;96562.31;;;0.10;77.72
56831;BME280;42713;42.676;23.352;2023-02-13T03:19:26;96570.75;;;0.12;77.58
56831;BME280;42713;42.676;23.352;2023-02-13T03:25:05;96568.22;;;0.22;77.05
56831;BME280;42713;42.676;23.352;2023-02-13T03:27:58;96573.78;;;0.27;76.77
56831;BME280;42713;42.676;23.352;2023-02-13T03:31:01;96570.41;;;0.27;76.74
56831;BME280;42713;42.676;23.352;2023-02-13T03:39:33;96565.34;;;0.25;76.68
56831;BME280;42713;42.676;23.352;2023-02-13T03:42:13;96574.31;;;0.31;76.69
56831;BME280;42713;42.676;23.352;2023-02-13T03:44:58;96563.91;;;0.33;76.58
56831;BME280;42713;42.676;23.352;2023-02-13T03:47:43;96569.22;;;0.41;76.04
56831;BME280;42713;42.676;23.352;2023-02-13T03:50:10;96578.97;;;0.47;75.71
56831;BME280;42713;42.676;23.352;2023-02-13T03:55:16;96575.47;;;0.48;75.36
56831;BME280;42713;42.676;23.352;2023-02-13T03:58:16;96572.06;;;0.48;75.68
56831;BME280;42713;42.676;23.352;2023-02-13T04:01:02;96574.22;;;0.42;75.79
56831;BME280;42713;42.676;23.352;2023-02-13T04:06:07;96565.53;;;0.43;75.04
56831;BME280;42713;42.676;23.352;2023-02-13T04:08:34;96574.50;;;0.49;75.07
56831;BME280;42713;42.676;23.352;2023-02-13T04:13:41;96570.16;;;0.50;74.13
56831;BME280;42713;42.676;23.352;2023-02-13T04:16:15;96567.59;;;0.50;73.66
56831;BME280;42713;42.676;23.352;2023-02-13T04:18:43;96564.16;;;0.39;73.70
56831;BME280;42713;42.676;23.352;2023-02-13T04:21:09;96573.00;;;0.37;74.13
56831;BME280;42713;42.676;23.352;2023-02-13T04:23:35;96574.22;;;0.33;74.00
56831;BME280;42713;42.676;23.352;2023-02-13T04:26:03;96574.63;;;0.28;73.98
56831;BME280;42713;42.676;23.352;2023-02-13T04:28:30;96580.44;;;0.30;74.16
56831;BME280;42713;42.676;23.352;2023-02-13T04:30:55;96583.97;;;0.39;74.24
56831;BME280;42713;42.676;23.352;2023-02-13T04:33:22;96575.72;;;0.35;73.63
56831;BME280;42713;42.676;23.352;2023-02-13T04:35:47;96573.38;;;0.32;73.31
56831;BME280;42713;42.676;23.352;2023-02-13T04:38:13;96567.84;;;0.37;72.61
56831;BME280;42713;42.676;23.352;2023-02-13T04:40:38;96572.59;;;0.32;72.86
56831;BME280;42713;42.676;23.352;2023-02-13T04:43:04;96564.69;;;0.23;72.84
56831;BME280;42713;42.676;23.352;2023-02-13T04:45:29;96568.91;;;0.24;72.93
56831;BME280;42713;42.676;23.352;2023-02-13T04:47:56;96576.06;;;0.21;72.92
56831;BME280;42713;42.676;23.352;2023-02-13T04:50:22;96574.88;;;0.25;73.41
56831;BME280;42713;42.676;23.352;2023-02-13T04:52:52;96576.25;;;0.29;73.65
56831;BME280;42713;42.676;23.352;2023-02-13T04:55:20;96589.13;;;0.29;73.32
56831;BME280;42713;42.676;23.352;2023-02-13T04:57:46;96594.28;;;0.29;72.67
56831;BME280;42713;42.676;23.352;2023-02-13T05:00:12;96591.81;;;0.27;73.09
56831;BME280;42713;42.676;23.352;2023-02-13T05:02:38;96594.28;;;0.29;72.97
56831;BME280;42713;42.676;23.352;2023-02-13T05:05:03;96584.91;;;0.28;72.51
56831;BME280;42713;42.676;23.352;2023-02-13T05:07:29;96591.81;;;0.27;72.75
56831;BME280;42713;42.676;23.352;2023-02-13T05:09:54;96599.69;;;0.26;72.46
56831;BME280;42713;42.676;23.352;2023-02-13T05:12:20;96602.41;;;0.24;72.59
56831;BME280;42713;42.676;23.352;2023-02-13T05:14:45;96605.78;;;0.25;72.53
56831;BME280;42713;42.676;23.352;2023-02-13T05:17:11;96598.59;;;0.19;72.46
56831;BME280;42713;42.676;23.352;2023-02-13T05:19:36;96597.63;;;0.20;72.20
56831;BME280;42713;42.676;23.352;2023-02-13T05:22:02;96603.59;;;0.20;72.44
56831;BME280;42713;42.676;23.352;2023-02-13T05:24:46;96607.81;;;0.21;72.17
56831;BME280;42713;42.676;23.352;2023-02-13T05:27:11;96607.56;;;0.24;71.94
56831;BME280;42713;42.676;23.352;2023-02-13T05:29:36;96606.97;;;0.21;72.35
56831;BME280;42713;42.676;23.352;2023-02-13T05:32:02;96610.16;;;0.24;71.79
56831;BME280;42713;42.676;23.352;2023-02-13T05:34:28;96606.59;;;0.25;71.92
56831;BME280;42713;42.676;23.352;2023-02-13T05:36:54;96608.63;;;0.22;72.34
56831;BME280;42713;42.676;23.352;2023-02-13T05:39:20;96610.69;;;0.28;72.54
56831;BME280;42713;42.676;23.352;2023-02-13T05:41:46;96611.50;;;0.28;71.93
56831;BME280;42713;42.676;23.352;2023-02-13T05:44:12;96615.41;;;0.23;71.92
56831;BME280;42713;42.676;23.352;2023-02-13T05:46:39;96614.91;;;0.29;72.07
56831;BME280;42713;42.676;23.352;2023-02-13T05:49:06;96619.91;;;0.30;72.07
56831;BME280;42713;42.676;23.352;2023-02-13T05:51:32;96612.88;;;0.33;71.82
56831;BME280;42713;42.676;23.352;2023-02-13T05:53:57;96614.22;;;0.37;71.88
56831;BME280;42713;42.676;23.352;2023-02-13T05:56:23;96627.00;;;0.38;71.95
56831;BME280;42713;42.676;23.352;2023-02-13T05:58:52;96627.66;;;0.40;72.04
56831;BME280;42713;42.676;23.352;2023-02-13T06:01:19;96624.28;;;0.40;71.52
56831;BME280;42713;42.676;23.352;2023-02-13T06:03:45;96622.13;;;0.45;71.11
56831;BME280;42713;42.676;23.352;2023-02-13T06:06:11;96626.34;;;0.46;71.45
56831;BME280;42713;42.676;23.352;2023-02-13T06:08:36;96632.88;;;0.50;71.25
56831;BME280;42713;42.676;23.352;2023-02-13T06:11:02;96627.16;;;0.46;70.74
56831;BME280;42713;42.676;23.352;2023-02-13T06:13:28;96629.47;;;0.50;71.17
56831;BME280;42713;42.676;23.352;2023-02-13T06:15:54;96628.66;;;0.49;71.20
56831;BME280;42713;42.676;23.352;2023-02-13T06:18:19;96639.53;;;0.53;70.95
56831;BME280;42713;42.676;23.352;2023-02-13T06:20:45;96643.59;;;0.55;70.97
56831;BME280;42713;42.676;23.352;2023-02-13T06:23:10;96642.41;;;0.59;70.77
56831;BME280;42713;42.676;23.352;2023-02-13T06:25:36;96638.88;;;0.60;70.81
56831;BME280;42713;42.676;23.352;2023-02-13T06:28:03;96647.97;;;0.65;70.10
56831;BME280;42713;42.676;23.352;2023-02-13T06:30:29;96637.22;;;0.59;70.39
56831;BME280;42713;42.676;23.352;2023-02-13T06:32:55;96647.41;;;0.61;70.40
56831;BME280;42713;42.676;23.352;2023-02-13T06:35:20;96638.31;;;0.57;70.42
56831;BME280;42713;42.676;23.352;2023-02-13T06:37:46;96651.13;;;0.68;70.29
56831;BME280;42713;42.676;23.352;2023-02-13T06:40:14;96652.59;;;0.71;70.46
56831;BME280;42713;42.676;23.352;2023-02-13T06:42:44;96648.13;;;0.73;70.34
56831;BME280;42713;42.676;23.352;2023-02-13T06:45:10;96646.50;;;0.72;70.00
56831;BME280;42713;42.676;23.352;2023-02-13T06:47:41;96661.56;;;0.76;70.44
56831;BME280;42713;42.676;23.352;2023-02-13T06:50:07;96659.81;;;0.77;69.92
56831;BME280;42713;42.676;23.352;2023-02-13T06:52:33;96646.09;;;0.76;70.29
56831;BME280;42713;42.676;23.352;2023-02-13T06:55:00;96656.03;;;0.81;69.90
56831;BME280;42713;42.676;23.352;2023-02-13T06:57:25;96648.69;;;0.86;70.30
56831;BME280;42713;42.676;23.352;2023-02-13T06:59:51;96644.47;;;0.85;70.04
56831;BME280;42713;42.676;23.352;2023-02-13T07:02:17;96652.78;;;0.99;70.02
56831;BME280;42713;42.676;23.352;2023-02-13T07:04:43;96646.13;;;1.06;69.52
56831;BME280;42713;42.676;23.352;2023-02-13T07:07:08;96638.94;;;1.09;69.81
56831;BME280;42713;42.676;23.352;2023-02-13T07:09:34;96642.75;;;1.15;68.96
56831;BME280;42713;42.676;23.352;2023-02-13T07:12:03;96639.06;;;1.18;68.73
56831;BME280;42713;42.676;23.352;2023-02-13T07:14:29;96630.13;;;1.12;68.54
56831;BME280;42713;42.676;23.352;2023-02-13T07:16:56;96626.44;;;1.15;68.56
56831;BME280;42713;42.676;23.352;2023-02-13T07:19:21;96642.47;;;1.18;69.19
56831;BME280;42713;42.676;23.352;2023-02-13T07:21:48;96652.25;;;1.34;68.92
56831;BME280;42713;42.676;23.352;2023-02-13T07:24:13;96647.38;;;1.31;69.21
56831;BME280;42713;42.676;23.352;2023-02-13T07:26:39;96648.44;;;1.38;70.27
56831;BME280;42713;42.676;23.352;2023-02-13T07:29:04;96637.31;;;1.38;70.07
56831;BME280;42713;42.676;23.352;2023-02-13T07:31:33;96643.81;;;1.42;69.73
56831;BME280;42713;42.676;23.352;2023-02-13T07:33:59;96657.81;;;1.59;69.68
56831;BME280;42713;42.676;23.352;2023-02-13T07:36:26;96641.09;;;1.53;69.72
56831;BME280;42713;42.676;23.352;2023-02-13T07:38:51;96664.63;;;1.70;69.18
56831;BME280;42713;42.676;23.352;2023-02-13T07:41:17;96643.41;;;1.66;68.62
56831;BME280;42713;42.676;23.352;2023-02-13T07:43:45;96629.69;;;1.56;68.44
56831;BME280;42713;42.676;23.352;2023-02-13T07:46:11;96645.84;;;1.68;68.41
56831;BME280;42713;42.676;23.352;2023-02-13T07:48:36;96646.38;;;1.62;68.13
56831;BME280;42713;42.676;23.352;2023-02-13T07:51:03;96648.41;;;1.78;68.52
56831;BME280;42713;42.676;23.352;2023-02-13T07:53:30;96647.75;;;1.66;67.57
56831;BME280;42713;42.676;23.352;2023-02-13T07:55:56;96646.97;;;1.46;67.67
56831;BME280;42713;42.676;23.352;2023-02-13T07:58:21;96639.47;;;1.52;67.95
56831;BME280;42713;42.676;23.352;2023-02-13T08:00:47;96659.59;;;1.49;67.32
56831;BME280;42713;42.676;23.352;2023-02-13T08:03:12;96646.97;;;1.46;67.81
56831;BME280;42713;42.676;23.352;2023-02-13T08:05:38;96657.53;;;1.62;67.96
56831;BME280;42713;42.676;23.352;2023-02-13T08:08:05;96633.63;;;1.40;67.77
56831;BME280;42713;42.676;23.352;2023-02-13T08:10:30;96646.25;;;1.53;68.10
56831;BME280;42713;42.676;23.352;2023-02-13T08:13:15;96648.84;;;1.53;67.83
56831;BME280;42713;42.676;23.352;2023-02-13T08:15:42;96657.13;;;1.37;67.83
56831;BME280;42713;42.676;23.352;2023-02-13T08:18:09;96640.69;;;1.38;67.88
56831;BME280;42713;42.676;23.352;2023-02-13T08:20:35;96642.47;;;1.58;68.49
56831;BME280;42713;42.676;23.352;2023-02-13T08:23:05;96648.03;;;1.53;67.72
56831;BME280;42713;42.676;23.352;2023-02-13T08:25:32;96656.59;;;1.44;67.53
56831;BME280;42713;42.676;23.352;2023-02-13T08:27:58;96654.31;;;1.31;68.06
56831;BME280;42713;42.676;23.352;2023-02-13T08:30:24;96658.50;;;1.12;68.55
56831;BME280;42713;42.676;23.352;2023-02-13T08:32:50;96639.75;;;1.00;69.18
56831;BME280;42713;42.676;23.352;2023-02-13T08:35:15;96650.59;;;1.04;69.56
56831;BME280;42713;42.676;23.352;2023-02-13T08:37:41;96647.75;;;1.07;69.59
56831;BME280;42713;42.676;23.352;2023-02-13T08:40:06;96645.97;;;0.78;69.90
56831;BME280;42713;42.676;23.352;2023-02-13T08:42:35;96652.59;;;0.71;70.68
56831;BME280;42713;42.676;23.352;2023-02-13T08:45:01;96652.59;;;0.71;70.77
56831;BME280;42713;42.676;23.352;2023-02-13T08:47:26;96657.06;;;0.69;71.11
56831;BME280;42713;42.676;23.352;2023-02-13T08:49:52;96660.06;;;0.74;71.16
56831;BME280;42713;42.676;23.352;2023-02-13T08:52:17;96655.03;;;0.72;70.97
56831;BME280;42713;42.676;23.352;2023-02-13T08:54:43;96650.19;;;0.89;70.82
56831;BME280;42713;42.676;23.352;2023-02-13T08:57:08;96645.31;;;0.96;70.34
56831;BME280;42713;42.676;23.352;2023-02-13T08:59:34;96653.63;;;1.09;70.18
56831;BME280;42713;42.676;23.352;2023-02-13T09:01:59;96647.09;;;1.15;69.41
56831;BME280;42713;42.676;23.352;2023-02-13T09:04:25;96647.63;;;0.99;69.65
56831;BME280;42713;42.676;23.352;2023-02-13T09:06:50;96653.22;;;1.14;70.22
56831;BME280;42713;42.676;23.352;2023-02-13T09:09:15;96649.78;;;1.13;69.81
56831;BME280;42713;42.676;23.352;2023-02-13T09:11:41;96649.25;;;1.09;69.61
56831;BME280;42713;42.676;23.352;2023-02-13T09:14:07;96653.31;;;1.02;69.80
56831;BME280;42713;42.676;23.352;2023-02-13T09:16:32;96649.94;;;1.02;70.67
56831;BME280;42713;42.676;23.352;2023-02-13T09:18:58;96634.47;;;1.02;69.96
56831;BME280;42713;42.676;23.352;2023-02-13T09:21:23;96626.72;;;1.02;70.28
56831;BME280;42713;42.676;23.352;2023-02-13T09:23:49;96634.59;;;1.20;69.83
56831;BME280;42713;42.676;23.352;2023-02-13T09:26:17;96632.41;;;1.35;69.86
56831;BME280;42713;42.676;23.352;2023-02-13T09:28:43;96639.47;;;1.52;69.05
56831;BME280;42713;42.676;23.352;2023-02-13T09:31:12;96629.69;;;1.56;68.04
56831;BME280;42713;42.676;23.352;2023-02-13T09:33:43;96632.97;;;1.48;68.84
56831;BME280;42713;42.676;23.352;2023-02-13T09:36:11;96624.38;;;1.58;67.85
56831;BME280;42713;42.676;23.352;2023-02-13T09:38:39;96626.97;;;1.58;68.40
56831;BME280;42713;42.676;23.352;2023-02-13T09:41:12;96613.53;;;1.54;68.44
56831;BME280;42713;42.676;23.352;2023-02-13T09:43:49;96606.16;;;1.59;68.11
56831;BME280;42713;42.676;23.352;2023-02-13T09:46:20;96615.94;;;1.65;68.15
56831;BME280;42713;42.676;23.352;2023-02-13T09:48:49;96599.88;;;1.62;67.70
56831;BME280;42713;42.676;23.352;2023-02-13T09:51:17;96629.38;;;1.79;68.05
56831;BME280;42713;42.676;23.352;2023-02-13T09:54:04;96613.19;;;1.77;67.85
56831;BME280;42713;42.676;23.352;2023-02-13T10:01:41;96617.88;;;2.01;67.94
56831;BME280;42713;42.676;23.352;2023-02-13T10:07:14;96606.53;;;1.84;67.79
56831;BME280;42713;42.676;23.352;2023-02-13T10:10:02;96595.25;;;1.75;68.02
56831;BME280;42713;42.676;23.352;2023-02-13T10:12:55;96599.25;;;1.97;68.70
56831;BME280;42713;42.676;23.352;2023-02-13T10:17:59;96590.38;;;2.38;67.83
56831;BME280;42713;42.676;23.352;2023-02-13T10:20:38;96578.50;;;2.17;66.90
56831;BME280;42713;42.676;23.352;2023-02-13T10:25:47;96570.75;;;2.17;67.53
56831;BME280;42713;42.676;23.352;2023-02-13T10:28:41;96574.09;;;2.27;67.50
56831;BME280;42713;42.676;23.352;2023-02-13T10:31:17;96567.09;;;2.38;66.50
56831;BME280;42713;42.676;23.352;2023-02-13T10:33:48;96566.00;;;2.40;66.15
56831;BME280;42713;42.676;23.352;2023-02-13T10:36:17;96563.66;;;2.47;65.65
56831;BME280;42713;42.676;23.352;2023-02-13T10:39:40;96556.13;;;2.54;66.10
56831;BME280;42713;42.676;23.352;2023-02-13T10:41:50;96553.09;;;2.58;65.87
56831;BME280;42713;42.676;23.352;2023-02-13T11:00:24;96524.72;;;2.48;65.21
56831;BME280;42713;42.676;23.352;2023-02-13T11:02:54;96517.56;;;2.60;64.70
56831;BME280;42713;42.676;23.352;2023-02-13T11:05:29;96514.69;;;2.63;64.66
56831;BME280;42713;42.676;23.352;2023-02-13T11:07:55;96508.69;;;2.81;64.89
56831;BME280;42713;42.676;23.352;2023-02-13T11:10:24;96508.81;;;2.98;64.27
56831;BME280;42713;42.676;23.352;2023-02-13T11:12:50;96501.97;;;3.15;64.95
56831;BME280;42713;42.676;23.352;2023-02-13T11:15:21;96494.94;;;3.25;63.63
56831;BME280;42713;42.676;23.352;2023-02-13T11:17:48;96496.69;;;3.24;62.62
56831;BME280;42713;42.676;23.352;2023-02-13T11:20:32;96493.47;;;3.22;63.06
56831;BME280;42713;42.676;23.352;2023-02-13T11:23:17;96499.66;;;3.30;61.92
56831;BME280;42713;42.676;23.352;2023-02-13T11:29:17;96484.19;;;3.20;62.57
56831;BME280;42713;42.676;23.352;2023-02-13T11:31:45;96462.72;;;3.27;61.93
56831;BME280;42713;42.676;23.352;2023-02-13T11:34:37;96462.94;;;3.34;61.62
56831;BME280;42713;42.676;23.352;2023-02-13T11:39:41;96426.06;;;3.40;61.21
56831;BME280;42713;42.676;23.352;2023-02-13T11:42:34;96447.25;;;3.79;60.99
56831;BME280;42713;42.676;23.352;2023-02-13T11:45:06;96439.38;;;3.88;61.04
56831;BME280;42713;42.676;23.352;2023-02-13T11:47:38;96444.09;;;4.01;60.05
56831;BME280;42713;42.676;23.352;2023-02-13T11:53:02;96412.19;;;4.01;57.51
56831;BME280;42713;42.676;23.352;2023-02-13T11:55:37;96424.69;;;4.05;57.75
56831;BME280;42713;42.676;23.352;2023-02-13T12:00:41;96411.44;;;4.25;56.59
56831;BME280;42713;42.676;23.352;2023-02-13T12:06:00;96400.06;;;4.26;55.38
56831;BME280;42713;42.676;23.352;2023-02-13T12:08:26;96406.25;;;4.33;55.67
56831;BME280;42713;42.676;23.352;2023-02-13T12:10:53;96396.19;;;4.47;55.46
56831;BME280;42713;42.676;23.352;2023-02-13T12:13:34;96394.56;;;4.71;54.42
56831;BME280;42713;42.676;23.352;2023-02-13T12:16:12;96391.16;;;4.78;54.25
56831;BME280;42713;42.676;23.352;2023-02-13T12:18:49;96386.59;;;4.97;54.03
56831;BME280;42713;42.676;23.352;2023-02-13T12:24:32;96388.69;;;5.02;52.07
56831;BME280;42713;42.676;23.352;2023-02-13T12:36:06;96373.59;;;5.53;49.55
56831;BME280;42713;42.676;23.352;2023-02-13T12:41:43;96375.28;;;5.69;51.29
56831;BME280;42713;42.676;23.352;2023-02-13T12:47:13;96349.53;;;5.83;47.24
56831;BME280;42713;42.676;23.352;2023-02-13T12:56:00;96351.91;;;6.01;47.02
56831;BME280;42713;42.676;23.352;2023-02-13T13:06:56;96338.25;;;6.22;45.62
56831;BME280;42713;42.676;23.352;2023-02-13T13:15:10;96327.56;;;6.40;46.42
56831;BME280;42713;42.676;23.352;2023-02-13T13:17:44;96327.34;;;6.80;46.13
56831;BME280;42713;42.676;23.352;2023-02-13T13:20:34;96330.16;;;7.08;45.04
56831;BME280;42713;42.676;23.352;2023-02-13T13:28:38;96313.31;;;7.41;43.30
56831;BME280;42713;42.676;23.352;2023-02-13T13:31:06;96328.97;;;7.41;42.52
56831;BME280;42713;42.676;23.352;2023-02-13T13:33:33;96318.78;;;7.46;42.83
56831;BME280;42713;42.676;23.352;2023-02-13T13:36:08;96306.53;;;7.61;43.64
56831;BME280;42713;42.676;23.352;2023-02-13T13:51:46;96297.47;;;7.79;41.93
56831;BME280;42713;42.676;23.352;2023-02-13T13:59:24;96301.94;;;8.29;41.21
56831;BME280;42713;42.676;23.352;2023-02-13T14:02:38;96290.09;;;8.04;41.80
56831;BME280;42713;42.676;23.352;2023-02-13T14:07:57;96306.09;;;8.66;41.10
56831;BME280;42713;42.676;23.352;2023-02-13T14:18:00;96288.63;;;9.09;39.68
56831;BME280;42713;42.676;23.352;2023-02-13T14:28:56;96277.28;;;9.37;40.33
56831;BME280;42713;42.676;23.352;2023-02-13T14:31:30;96270.56;;;9.69;39.28
56831;BME280;42713;42.676;23.352;2023-02-13T14:36:31;96262.72;;;9.69;38.84
56831;BME280;42713;42.676;23.352;2023-02-13T14:46:59;96270.41;;;8.80;40.48
56831;BME280;42713;42.676;23.352;2023-02-13T14:49:32;96274.34;;;8.69;40.96
56831;BME280;42713;42.676;23.352;2023-02-13T14:52:07;96274.06;;;8.93;40.61
56831;BME280;42713;42.676;23.352;2023-02-13T14:54:49;96271.84;;;8.54;40.91
56831;BME280;42713;42.676;23.352;2023-02-13T14:57:24;96272.09;;;8.60;41.04
56831;BME280;42713;42.676;23.352;2023-02-13T15:00:00;96268.47;;;8.10;42.25
56831;BME280;42713;42.676;23.352;2023-02-13T15:02:32;96271.63;;;8.06;42.44
56831;BME280;42713;42.676;23.352;2023-02-13T15:05:13;96271.56;;;8.21;42.16
56831;BME280;42713;42.676;23.352;2023-02-13T15:07:46;96273.44;;;8.27;41.75
56831;BME280;42713;42.676;23.352;2023-02-13T15:12:59;96264.50;;;7.93;42.83
56831;BME280;42713;42.676;23.352;2023-02-13T15:15:31;96268.31;;;8.19;42.42
56831;BME280;42713;42.676;23.352;2023-02-13T15:18:06;96255.63;;;8.66;41.45
56831;BME280;42713;42.676;23.352;2023-02-13T15:20:36;96271.00;;;8.82;40.68
56831;BME280;42713;42.676;23.352;2023-02-13T15:23:04;96272.16;;;8.45;41.62
56831;BME280;42713;42.676;23.352;2023-02-13T15:25:38;96271.84;;;8.33;41.68
56831;BME280;42713;42.676;23.352;2023-02-13T15:28:06;96267.91;;;8.15;41.88
56831;BME280;42713;42.676;23.352;2023-02-13T15:30:35;96264.16;;;8.24;42.31
56831;BME280;42713;42.676;23.352;2023-02-13T15:33:03;96275.94;;;8.14;41.88
56831;BME280;42713;42.676;23.352;2023-02-13T15:35:38;96273.31;;;7.92;42.43
56831;BME280;42713;42.676;23.352;2023-02-13T15:38:39;96278.34;;;7.72;42.83
56831;BME280;42713;42.676;23.352;2023-02-13T15:41:09;96264.63;;;7.11;44.34
56831;BME280;42713;42.676;23.352;2023-02-13T15:43:38;96277.22;;;6.93;43.96
56831;BME280;42713;42.676;23.352;2023-02-13T15:46:07;96261.66;;;6.39;45.51
56831;BME280;42713;42.676;23.352;2023-02-13T15:48:43;96275.41;;;6.33;45.75
56831;BME280;42713;42.676;23.352;2023-02-13T15:51:17;96284.03;;;5.87;47.42
56831;BME280;42713;42.676;23.352;2023-02-13T15:54:02;96293.06;;;5.68;46.92
56831;BME280;42713;42.676;23.352;2023-02-13T15:56:28;96280.06;;;5.45;47.33
56831;BME280;42713;42.676;23.352;2023-02-13T15:58:55;96278.16;;;5.39;48.01
56831;BME280;42713;42.676;23.352;2023-02-13T16:01:22;96283.06;;;5.25;48.01
56831;BME280;42713;42.676;23.352;2023-02-13T16:03:53;96276.19;;;5.09;48.22
56831;BME280;42713;42.676;23.352;2023-02-13T16:06:22;96295.59;;;5.22;48.45
56831;BME280;42713;42.676;23.352;2023-02-13T16:08:53;96289.97;;;5.10;48.72
56831;BME280;42713;42.676;23.352;2023-02-13T16:11:34;96302.44;;;5.14;49.12
56831;BME280;42713;42.676;23.352;2023-02-13T16:14:22;96283.84;;;5.03;49.21
56831;BME280;42713;42.676;23.352;2023-02-13T16:16:57;96299.72;;;5.08;49.47
56831;BME280;42713;42.676;23.352;2023-02-13T16:19:29;96306.56;;;5.01;50.25
56831;BME280;42713;42.676;23.352;2023-02-13T16:22:22;96304.13;;;4.99;49.94
56831;BME280;42713;42.676;23.352;2023-02-13T16:24:50;96307.56;;;4.91;50.13